createdAt,value
2018-09-04T00:00:48.330Z,1017.36
2018-09-04T00:01:48.538Z,1017.38
2018-09-04T00:03:51.517Z,1017.32
2018-09-04T00:04:51.658Z,1017.33
2018-09-04T00:05:51.849Z,1017.30
2018-09-04T00:06:51.989Z,1017.28
2018-09-04T00:07:52.271Z,1017.27
2018-09-04T00:08:51.527Z,1017.28
2018-09-04T00:09:51.900Z,1017.23
2018-09-04T00:10:52.077Z,1017.20
2018-09-04T00:11:51.300Z,1017.21
2018-09-04T00:12:52.242Z,1017.16
2018-09-04T00:13:51.239Z,1017.13
2018-09-04T00:14:51.356Z,1017.15
2018-09-04T00:15:51.596Z,1017.14
2018-09-04T00:16:51.830Z,1017.12
2018-09-04T00:18:13.061Z,1017.13
2018-09-04T00:19:13.267Z,1017.12
2018-09-04T00:20:34.618Z,1017.10
2018-09-04T00:21:34.808Z,1017.14
2018-09-04T00:22:34.973Z,1017.15
2018-09-04T00:23:35.206Z,1017.14
2018-09-04T00:24:35.466Z,1017.13
2018-09-04T00:25:35.966Z,1017.13
2018-09-04T00:26:56.073Z,1017.12
2018-09-04T00:27:56.170Z,1017.12
2018-09-04T00:28:56.388Z,1017.06
2018-09-04T00:29:56.647Z,1017.11
2018-09-04T00:30:56.830Z,1017.09
2018-09-04T00:31:56.111Z,1017.13
2018-09-04T00:32:56.404Z,1017.09
2018-09-04T00:33:56.547Z,1017.11
2018-09-04T00:34:56.688Z,1017.09
2018-09-04T00:35:56.735Z,1017.09
2018-09-04T00:36:56.929Z,1017.07
2018-09-04T00:37:56.184Z,1017.02
2018-09-04T00:38:56.341Z,1017.04
2018-09-04T00:40:17.607Z,1017.04
2018-09-04T00:41:38.681Z,1017.01
2018-09-04T00:42:38.689Z,1017.04
2018-09-04T00:43:38.747Z,1017.03
2018-09-04T00:44:39.059Z,1017.02
2018-09-04T00:45:39.119Z,1017.03
2018-09-04T00:46:39.324Z,1017.02
2018-09-04T00:48:00.257Z,1017.04
2018-09-04T00:49:00.574Z,1017.02
2018-09-04T00:50:00.700Z,1016.99
2018-09-04T00:51:00.915Z,1016.99
2018-09-04T00:52:01.138Z,1017.01
2018-09-04T00:53:21.402Z,1016.98
2018-09-04T00:54:21.463Z,1016.98
2018-09-04T00:55:21.407Z,1016.99
2018-09-04T00:56:21.654Z,1017.02
2018-09-04T00:57:43.193Z,1017.00
2018-09-04T00:58:43.363Z,1016.98
2018-09-04T01:00:04.532Z,1017.02
2018-09-04T01:01:04.650Z,1017.01
2018-09-04T01:02:04.915Z,1017.04
2018-09-04T01:03:04.970Z,1017.02
2018-09-04T01:04:05.165Z,1017.03
2018-09-04T01:05:05.438Z,1017.02
2018-09-04T01:06:04.870Z,1017.02
2018-09-04T01:07:05.139Z,1017.05
2018-09-04T01:08:05.283Z,1017.03
2018-09-04T01:09:04.595Z,1017.03
2018-09-04T01:10:04.631Z,1017.03
2018-09-04T01:11:04.858Z,1017.04
2018-09-04T01:12:05.126Z,1017.05
2018-09-04T01:13:04.361Z,1017.04
2018-09-04T01:14:04.614Z,1017.04
2018-09-04T01:15:04.810Z,1017.01
2018-09-04T01:16:05.064Z,1017.02
2018-09-04T01:17:05.344Z,1017.05
2018-09-04T01:18:04.563Z,1017.04
2018-09-04T01:19:04.936Z,1017.05
2018-09-04T01:20:05.283Z,1017.07
2018-09-04T01:21:04.542Z,1017.10
2018-09-04T01:22:04.679Z,1017.07
2018-09-04T01:23:04.878Z,1017.08
2018-09-04T01:24:25.976Z,1017.05
2018-09-04T01:25:26.130Z,1017.07
2018-09-04T01:26:26.452Z,1017.07
2018-09-04T01:27:26.358Z,1017.07
2018-09-04T01:28:26.663Z,1017.09
2018-09-04T01:29:27.159Z,1017.07
2018-09-04T01:30:26.473Z,1017.08
2018-09-04T01:31:26.708Z,1017.09
2018-09-04T01:32:27.041Z,1017.09
2018-09-04T01:33:26.136Z,1017.06
2018-09-04T01:34:26.351Z,1017.10
2018-09-04T01:35:26.498Z,1017.05
2018-09-04T01:36:26.697Z,1017.09
2018-09-04T01:37:26.863Z,1017.11
2018-09-04T01:38:46.876Z,1017.14
2018-09-04T01:39:46.959Z,1017.20
2018-09-04T01:40:47.072Z,1017.17
2018-09-04T01:41:47.294Z,1017.19
2018-09-04T01:42:47.674Z,1017.16
2018-09-04T01:43:47.770Z,1017.12
2018-09-04T01:44:46.871Z,1017.10
2018-09-04T01:46:08.010Z,1017.11
2018-09-04T01:47:29.296Z,1017.09
2018-09-04T01:48:29.771Z,1017.10
2018-09-04T01:49:50.737Z,1017.07
2018-09-04T01:50:51.016Z,1017.08
2018-09-04T01:51:50.927Z,1017.15
2018-09-04T01:53:11.758Z,1017.17
2018-09-04T01:54:12.246Z,1017.19
2018-09-04T01:55:12.502Z,1017.18
2018-09-04T01:56:11.788Z,1017.17
2018-09-04T01:57:33.006Z,1017.18
2018-09-04T01:58:33.147Z,1017.21
2018-09-04T01:59:33.462Z,1017.23
2018-09-04T02:00:33.741Z,1017.23
2018-09-04T02:01:33.767Z,1017.25
2018-09-04T02:02:33.966Z,1017.26
2018-09-04T02:03:33.187Z,1017.21
2018-09-04T02:04:33.363Z,1017.19
2018-09-04T02:05:33.342Z,1017.22
2018-09-04T02:06:33.368Z,1017.18
2018-09-04T02:07:54.447Z,1017.15
2018-09-04T02:08:54.761Z,1017.15
2018-09-04T02:09:55.075Z,1017.14
2018-09-04T02:10:55.283Z,1017.13
2018-09-04T02:11:55.548Z,1017.12
2018-09-04T02:12:54.825Z,1017.11
2018-09-04T02:13:55.111Z,1017.12
2018-09-04T02:14:55.395Z,1017.11
2018-09-04T02:15:54.662Z,1017.12
2018-09-04T02:16:54.908Z,1017.12
2018-09-04T02:17:55.186Z,1017.09
2018-09-04T02:19:16.320Z,1017.06
2018-09-04T02:20:16.459Z,1017.09
2018-09-04T02:21:16.685Z,1017.06
2018-09-04T02:22:16.827Z,1017.03
2018-09-04T02:23:17.103Z,1017.00
2018-09-04T02:24:16.434Z,1016.97
2018-09-04T02:25:16.546Z,1016.99
2018-09-04T02:26:16.697Z,1016.98
2018-09-04T02:27:37.887Z,1016.96
2018-09-04T02:28:59.747Z,1016.91
2018-09-04T02:29:59.693Z,1016.94
2018-09-04T02:31:00.080Z,1016.92
2018-09-04T02:32:00.065Z,1016.91
2018-09-04T02:33:00.324Z,1016.89
2018-09-04T02:34:00.495Z,1016.93
2018-09-04T02:35:00.801Z,1016.91
2018-09-04T02:36:00.233Z,1016.90
2018-09-04T02:37:00.266Z,1016.89
2018-09-04T02:38:00.556Z,1016.89
2018-09-04T02:38:59.664Z,1016.90
2018-09-04T02:39:59.950Z,1016.92
2018-09-04T02:41:00.188Z,1016.92
2018-09-04T02:42:41.952Z,1016.93
2018-09-04T02:44:04.303Z,1016.90
2018-09-04T02:45:04.486Z,1016.95
2018-09-04T02:46:04.711Z,1016.94
2018-09-04T02:47:03.918Z,1016.90
2018-09-04T02:48:03.970Z,1016.93
2018-09-04T02:49:03.986Z,1016.91
2018-09-04T02:50:24.710Z,1016.89
2018-09-04T02:51:25.002Z,1016.88
2018-09-04T02:52:25.224Z,1016.84
2018-09-04T02:53:25.499Z,1016.88
2018-09-04T02:54:25.638Z,1016.83
2018-09-04T02:55:45.717Z,1016.86
2018-09-04T02:56:45.928Z,1016.86
2018-09-04T02:57:45.959Z,1016.85
2018-09-04T02:58:46.165Z,1016.86
2018-09-04T02:59:46.521Z,1016.86
2018-09-04T03:00:45.776Z,1016.85
2018-09-04T03:02:06.847Z,1016.89
2018-09-04T03:03:06.966Z,1016.87
2018-09-04T03:04:07.213Z,1016.90
2018-09-04T03:05:07.569Z,1016.91
2018-09-04T03:06:08.003Z,1016.91
2018-09-04T03:07:07.658Z,1016.93
2018-09-04T03:08:07.719Z,1016.92
2018-09-04T03:09:07.944Z,1016.92
2018-09-04T03:10:07.038Z,1016.94
2018-09-04T03:11:07.290Z,1016.93
2018-09-04T03:12:07.542Z,1016.93
2018-09-04T03:13:07.816Z,1016.92
2018-09-04T03:14:07.331Z,1016.92
2018-09-04T03:15:07.672Z,1016.94
2018-09-04T03:16:07.818Z,1016.91
2018-09-04T03:17:08.835Z,1016.92
2018-09-04T03:19:30.851Z,1016.93
2018-09-04T03:20:31.197Z,1016.93
2018-09-04T03:21:31.156Z,1016.94
2018-09-04T03:22:31.355Z,1016.94
2018-09-04T03:23:31.663Z,1016.95
2018-09-04T03:24:31.891Z,1016.96
2018-09-04T03:25:31.024Z,1016.96
2018-09-04T03:26:30.993Z,1016.97
2018-09-04T03:27:31.119Z,1016.96
2018-09-04T03:28:31.275Z,1016.95
2018-09-04T03:29:31.352Z,1016.94
2018-09-04T03:30:31.461Z,1016.93
2018-09-04T03:31:52.329Z,1016.90
2018-09-04T03:32:52.590Z,1016.89
2018-09-04T03:33:52.821Z,1016.92
2018-09-04T03:34:53.151Z,1016.91
2018-09-04T03:35:52.323Z,1016.86
2018-09-04T03:36:52.470Z,1016.87
2018-09-04T03:37:52.822Z,1016.87
2018-09-04T03:38:53.198Z,1016.81
2018-09-04T03:39:52.424Z,1016.85
2018-09-04T03:40:52.549Z,1016.83
2018-09-04T03:41:52.717Z,1016.84
2018-09-04T03:42:52.820Z,1016.85
2018-09-04T03:43:53.094Z,1016.86
2018-09-04T03:44:52.192Z,1016.86
2018-09-04T03:45:52.297Z,1016.87
2018-09-04T03:46:52.465Z,1016.85
2018-09-04T03:47:52.642Z,1016.88
2018-09-04T03:48:52.966Z,1016.85
2018-09-04T03:49:53.057Z,1016.84
2018-09-04T03:50:53.136Z,1016.83
2018-09-04T03:51:52.238Z,1016.85
2018-09-04T03:52:52.268Z,1016.82
2018-09-04T03:53:52.675Z,1016.84
2018-09-04T03:54:52.749Z,1016.83
2018-09-04T03:55:52.961Z,1016.81
2018-09-04T03:56:53.260Z,1016.84
2018-09-04T03:57:52.362Z,1016.84
2018-09-04T03:58:52.654Z,1016.81
2018-09-04T03:59:52.860Z,1016.83
2018-09-04T04:00:53.250Z,1016.83
2018-09-04T04:02:34.512Z,1016.83
2018-09-04T04:03:34.678Z,1016.83
2018-09-04T04:04:34.962Z,1016.86
2018-09-04T04:05:35.162Z,1016.89
2018-09-04T04:06:35.494Z,1016.91
2018-09-04T04:07:34.654Z,1016.89
2018-09-04T04:08:34.835Z,1016.91
2018-09-04T04:09:35.035Z,1016.95
2018-09-04T04:10:35.225Z,1016.96
2018-09-04T04:11:56.502Z,1016.98
2018-09-04T04:13:17.835Z,1017.02
2018-09-04T04:14:18.676Z,1017.00
2018-09-04T04:15:18.887Z,1016.99
2018-09-04T04:16:18.290Z,1017.01
2018-09-04T04:17:18.359Z,1017.02
2018-09-04T04:18:18.483Z,1017.02
2018-09-04T04:19:18.714Z,1017.03
2018-09-04T04:20:18.091Z,1017.04
2018-09-04T04:21:18.479Z,1017.06
2018-09-04T04:22:18.957Z,1016.91
2018-09-04T04:23:18.225Z,1017.05
2018-09-04T04:24:18.536Z,1017.05
2018-09-04T04:25:18.657Z,1017.04
2018-09-04T04:26:18.886Z,1017.05
2018-09-04T04:27:18.301Z,1017.05
2018-09-04T04:28:18.487Z,1017.06
2018-09-04T04:29:18.571Z,1017.07
2018-09-04T04:31:00.046Z,1017.08
2018-09-04T04:32:00.049Z,1017.05
2018-09-04T04:33:42.832Z,1017.07
2018-09-04T04:34:43.070Z,1017.04
2018-09-04T04:35:43.254Z,1017.04
2018-09-04T04:36:43.729Z,1017.05
2018-09-04T04:37:43.100Z,1017.04
2018-09-04T04:38:43.402Z,1017.01
2018-09-04T04:39:42.819Z,1017.03
2018-09-04T04:41:04.151Z,1017.03
2018-09-04T04:42:04.449Z,1017.03
2018-09-04T04:43:04.829Z,1017.04
2018-09-04T04:44:04.966Z,1017.04
2018-09-04T04:45:25.161Z,1017.03
2018-09-04T04:46:25.631Z,1017.05
2018-09-04T04:47:25.847Z,1017.07
2018-09-04T04:48:26.311Z,1017.05
2018-09-04T04:49:25.538Z,1017.06
2018-09-04T04:50:25.690Z,1017.07
2018-09-04T04:51:26.006Z,1017.09
2018-09-04T04:52:26.159Z,1017.10
2018-09-04T04:53:25.296Z,1017.09
2018-09-04T04:54:25.559Z,1017.15
2018-09-04T04:55:25.877Z,1017.12
2018-09-04T04:56:26.203Z,1017.16
2018-09-04T04:57:25.640Z,1017.15
2018-09-04T04:58:25.940Z,1017.15
2018-09-04T04:59:26.215Z,1017.13
2018-09-04T05:00:25.572Z,1017.15
2018-09-04T05:01:26.028Z,1017.20
2018-09-04T05:02:25.382Z,1017.19
2018-09-04T05:03:46.740Z,1017.14
2018-09-04T05:05:08.701Z,1017.14
2018-09-04T05:06:30.172Z,1017.14
2018-09-04T05:07:30.779Z,1017.06
2018-09-04T05:08:30.800Z,1017.14
2018-09-04T05:09:51.445Z,1017.12
2018-09-04T05:10:51.937Z,1017.19
2018-09-04T05:11:52.378Z,1017.17
2018-09-04T05:13:12.865Z,1017.20
2018-09-04T05:14:55.252Z,1017.21
2018-09-04T05:15:55.765Z,1017.23
2018-09-04T05:16:56.130Z,1017.18
2018-09-04T05:17:55.262Z,1017.21
2018-09-04T05:18:55.486Z,1017.18
2018-09-04T05:19:55.631Z,1017.16
2018-09-04T05:20:55.633Z,1017.16
2018-09-04T05:21:55.909Z,1017.18
2018-09-04T05:22:56.229Z,1017.20
2018-09-04T05:23:55.315Z,1017.21
2018-09-04T05:24:55.839Z,1017.23
2018-09-04T05:25:56.186Z,1017.16
2018-09-04T05:27:37.529Z,1017.22
2018-09-04T05:28:37.861Z,1017.22
2018-09-04T05:29:38.283Z,1017.22
2018-09-04T05:30:37.586Z,1017.23
2018-09-04T05:31:58.881Z,1017.28
2018-09-04T05:33:20.089Z,1017.22
2018-09-04T05:34:41.313Z,1017.29
2018-09-04T05:35:41.533Z,1017.28
2018-09-04T05:36:41.920Z,1017.24
2018-09-04T05:38:03.456Z,1017.30
2018-09-04T05:39:03.836Z,1017.28
2018-09-04T05:40:04.394Z,1017.24
2018-09-04T05:41:03.759Z,1017.24
2018-09-04T05:42:25.658Z,1017.23
2018-09-04T05:44:30.113Z,1017.23
2018-09-04T05:45:31.136Z,1017.23
2018-09-04T05:46:30.640Z,1017.26
2018-09-04T05:47:31.004Z,1017.23
2018-09-04T05:48:30.252Z,1017.26
2018-09-04T05:49:30.558Z,1017.29
2018-09-04T05:50:51.878Z,1017.27
2018-09-04T05:51:52.841Z,1017.28
2018-09-04T05:53:13.391Z,1017.29
2018-09-04T05:54:34.662Z,1017.32
2018-09-04T05:55:34.616Z,1017.32
2018-09-04T05:56:34.863Z,1017.36
2018-09-04T05:57:35.230Z,1017.35
2018-09-04T05:58:35.505Z,1017.37
2018-09-04T05:59:34.826Z,1017.35
2018-09-04T06:00:35.174Z,1017.35
2018-09-04T06:01:35.900Z,1017.38
2018-09-04T06:02:35.279Z,1017.39
2018-09-04T06:03:35.512Z,1017.43
2018-09-04T06:04:55.898Z,1017.45
2018-09-04T06:05:56.312Z,1017.44
2018-09-04T06:06:56.860Z,1017.46
2018-09-04T06:07:56.309Z,1017.47
2018-09-04T06:08:56.472Z,1017.48
2018-09-04T06:10:17.765Z,1017.47
2018-09-04T06:11:17.976Z,1017.49
2018-09-04T06:12:18.311Z,1017.52
2018-09-04T06:13:18.795Z,1017.50
2018-09-04T06:14:18.293Z,1017.50
2018-09-04T06:15:39.557Z,1017.51
2018-09-04T06:16:39.773Z,1017.46
2018-09-04T06:17:40.092Z,1017.49
2018-09-04T06:18:40.513Z,1017.51
2018-09-04T06:19:39.721Z,1017.52
2018-09-04T06:21:21.660Z,1017.49
2018-09-04T06:22:21.743Z,1017.48
2018-09-04T06:23:21.978Z,1017.45
2018-09-04T06:24:22.939Z,1017.46
2018-09-04T06:25:23.105Z,1017.44
2018-09-04T06:26:44.872Z,1017.45
2018-09-04T06:27:44.392Z,1017.43
2018-09-04T06:28:44.990Z,1017.43
2018-09-04T06:29:44.541Z,1017.42
2018-09-04T06:30:44.754Z,1017.41
2018-09-04T06:31:44.280Z,1017.36
2018-09-04T06:32:44.767Z,1017.39
2018-09-04T06:34:05.644Z,1017.40
2018-09-04T06:35:06.212Z,1017.36
2018-09-04T06:36:05.843Z,1017.36
2018-09-04T06:37:06.738Z,1017.37
2018-09-04T06:38:06.149Z,1017.36
2018-09-04T06:39:05.615Z,1017.35
2018-09-04T06:40:06.130Z,1017.33
2018-09-04T06:41:05.721Z,1017.35
2018-09-04T06:42:27.506Z,1017.34
2018-09-04T06:43:49.010Z,1017.36
2018-09-04T06:44:49.329Z,1017.36
2018-09-04T06:46:31.940Z,1017.33
2018-09-04T06:47:32.739Z,1017.37
2018-09-04T06:48:32.195Z,1017.36
2018-09-04T06:49:32.907Z,1017.38
2018-09-04T06:50:53.851Z,1017.44
2018-09-04T06:51:54.305Z,1017.39
2018-09-04T06:52:53.717Z,1017.44
2018-09-04T06:54:15.168Z,1017.46
2018-09-04T06:55:15.655Z,1017.44
2018-09-04T06:56:36.823Z,1017.41
2018-09-04T06:57:37.413Z,1017.43
2018-09-04T06:58:37.833Z,1017.44
2018-09-04T06:59:37.213Z,1017.50
2018-09-04T07:00:37.758Z,1017.46
2018-09-04T07:01:37.242Z,1017.51
2018-09-04T07:02:37.480Z,1017.46
2018-09-04T07:03:38.023Z,1017.47
2018-09-04T07:04:37.708Z,1017.47
2018-09-04T07:05:37.151Z,1017.48
2018-09-04T07:06:37.517Z,1017.47
2018-09-04T07:07:58.928Z,1017.46
2018-09-04T07:08:59.026Z,1017.50
2018-09-04T07:09:59.592Z,1017.47
2018-09-04T07:10:59.112Z,1017.51
2018-09-04T07:12:20.036Z,1017.51
2018-09-04T07:13:20.443Z,1017.54
2018-09-04T07:14:20.650Z,1017.59
2018-09-04T07:15:20.848Z,1017.58
2018-09-04T07:16:21.024Z,1017.53
2018-09-04T07:17:20.239Z,1017.52
2018-09-04T07:18:20.517Z,1017.54
2018-09-04T07:19:22.180Z,1017.53
2018-09-04T07:20:20.413Z,1017.50
2018-09-04T07:21:20.631Z,1017.51
2018-09-04T07:22:42.073Z,1017.52
2018-09-04T07:24:03.523Z,1017.49
2018-09-04T07:25:24.980Z,1017.53
2018-09-04T07:26:25.184Z,1017.46
2018-09-04T07:27:46.328Z,1017.48
2018-09-04T07:28:46.598Z,1017.48
2018-09-04T07:29:46.951Z,1017.45
2018-09-04T07:30:47.361Z,1017.44
2018-09-04T07:31:47.290Z,1017.44
2018-09-04T07:32:46.880Z,1017.42
2018-09-04T07:33:47.696Z,1017.38
2018-09-04T07:34:47.045Z,1017.36
2018-09-04T07:35:47.498Z,1017.38
2018-09-04T07:36:46.822Z,1017.40
2018-09-04T07:38:08.247Z,1017.39
2018-09-04T07:39:30.042Z,1017.41
2018-09-04T07:40:30.709Z,1017.44
2018-09-04T07:41:30.130Z,1017.48
2018-09-04T07:42:30.434Z,1017.41
2018-09-04T07:43:30.929Z,1017.41
2018-09-04T07:44:30.256Z,1017.43
2018-09-04T07:45:30.586Z,1017.44
2018-09-04T07:46:51.085Z,1017.42
2018-09-04T07:47:51.351Z,1017.41
2018-09-04T07:48:51.791Z,1017.40
2018-09-04T07:49:52.056Z,1017.44
2018-09-04T07:51:54.783Z,1017.39
2018-09-04T07:52:55.114Z,1017.42
2018-09-04T07:53:55.375Z,1017.43
2018-09-04T07:54:55.937Z,1017.44
2018-09-04T07:55:55.511Z,1017.42
2018-09-04T07:56:55.852Z,1017.42
2018-09-04T07:57:55.170Z,1017.42
2018-09-04T07:58:55.624Z,1017.43
2018-09-04T07:59:55.068Z,1017.42
2018-09-04T08:00:55.593Z,1017.41
2018-09-04T08:01:55.157Z,1017.43
2018-09-04T08:02:55.586Z,1017.47
2018-09-04T08:03:54.890Z,1017.47
2018-09-04T08:04:55.347Z,1017.47
2018-09-04T08:05:54.844Z,1017.49
2018-09-04T08:06:55.463Z,1017.49
2018-09-04T08:07:55.123Z,1017.49
2018-09-04T08:09:16.733Z,1017.50
2018-09-04T08:10:17.346Z,1017.49
2018-09-04T08:11:16.849Z,1017.49
2018-09-04T08:12:17.317Z,1017.46
2018-09-04T08:13:17.723Z,1017.44
2018-09-04T08:14:59.389Z,1017.43
2018-09-04T08:15:59.607Z,1017.41
2018-09-04T08:17:00.028Z,1017.37
2018-09-04T08:18:00.333Z,1017.40
2018-09-04T08:19:00.646Z,1017.40
2018-09-04T08:20:00.335Z,1017.42
2018-09-04T08:20:59.884Z,1017.42
2018-09-04T08:22:00.361Z,1017.41
2018-09-04T08:22:59.781Z,1017.39
2018-09-04T08:24:00.340Z,1017.41
2018-09-04T08:24:59.777Z,1017.38
2018-09-04T08:26:00.014Z,1017.42
2018-09-04T08:27:00.483Z,1017.43
2018-09-04T08:27:59.850Z,1017.42
2018-09-04T08:29:00.409Z,1017.42
2018-09-04T08:29:59.798Z,1017.46
2018-09-04T08:31:01.107Z,1017.44
2018-09-04T08:32:20.830Z,1017.43
2018-09-04T08:33:22.950Z,1017.43
2018-09-04T08:34:42.392Z,1017.41
2018-09-04T08:36:04.252Z,1017.43
2018-09-04T08:37:26.278Z,1017.43
2018-09-04T08:38:26.713Z,1017.45
2018-09-04T08:39:27.341Z,1017.48
2018-09-04T08:40:26.960Z,1017.49
2018-09-04T08:41:26.509Z,1017.47
2018-09-04T08:42:51.195Z,1017.46
2018-09-04T08:43:50.487Z,1017.46
2018-09-04T08:44:50.926Z,1017.47
2018-09-04T08:45:50.245Z,1017.45
2018-09-04T08:46:50.568Z,1017.43
2018-09-04T08:48:12.014Z,1017.43
2018-09-04T08:49:12.526Z,1017.42
2018-09-04T08:50:11.994Z,1017.44
2018-09-04T08:51:12.312Z,1017.47
2018-09-04T08:52:12.780Z,1017.46
2018-09-04T08:53:12.299Z,1017.43
2018-09-04T08:54:12.654Z,1017.40
2018-09-04T08:55:12.073Z,1017.38
2018-09-04T08:56:12.698Z,1017.36
2018-09-04T08:57:12.622Z,1017.37
2018-09-04T08:58:35.355Z,1017.36
2018-09-04T08:59:35.796Z,1017.36
2018-09-04T09:00:36.102Z,1017.41
2018-09-04T09:01:56.635Z,1017.37
2018-09-04T09:02:57.090Z,1017.40
2018-09-04T09:03:57.658Z,1017.40
2018-09-04T09:04:56.935Z,1017.37
2018-09-04T09:05:57.235Z,1017.34
2018-09-04T09:06:56.917Z,1017.34
2018-09-04T09:07:57.378Z,1017.35
2018-09-04T09:08:56.818Z,1017.33
2018-09-04T09:09:57.358Z,1017.31
2018-09-04T09:10:56.977Z,1017.29
2018-09-04T09:11:57.961Z,1017.32
2018-09-04T09:12:57.296Z,1017.31
2018-09-04T09:13:56.563Z,1017.33
2018-09-04T09:16:21.902Z,1017.31
2018-09-04T09:17:22.145Z,1017.27
2018-09-04T09:18:23.270Z,1017.29
2018-09-04T09:19:22.685Z,1017.30
2018-09-04T09:20:22.155Z,1017.35
2018-09-04T09:21:22.679Z,1017.32
2018-09-04T09:22:22.055Z,1017.32
2018-09-04T09:23:22.314Z,1017.28
2018-09-04T09:24:22.631Z,1017.29
2018-09-04T09:26:04.528Z,1017.28
2018-09-04T09:27:26.058Z,1017.26
2018-09-04T09:28:26.535Z,1017.27
2018-09-04T09:29:27.021Z,1017.20
2018-09-04T09:30:26.367Z,1017.21
2018-09-04T09:31:27.781Z,1017.22
2018-09-04T09:32:26.290Z,1017.22
2018-09-04T09:33:26.721Z,1017.21
2018-09-04T09:34:26.121Z,1017.23
2018-09-04T09:35:47.741Z,1017.24
2018-09-04T09:36:49.389Z,1017.21
2018-09-04T09:37:48.230Z,1017.23
2018-09-04T09:38:48.506Z,1017.23
2018-09-04T09:40:30.264Z,1017.24
2018-09-04T09:41:30.626Z,1017.26
2018-09-04T09:42:31.402Z,1017.26
2018-09-04T09:43:52.035Z,1017.24
2018-09-04T09:44:52.412Z,1017.23
2018-09-04T09:45:52.807Z,1017.19
2018-09-04T09:46:52.169Z,1017.22
2018-09-04T09:47:52.878Z,1017.19
2018-09-04T09:48:52.158Z,1017.21
2018-09-04T09:49:52.524Z,1017.20
2018-09-04T09:50:52.977Z,1017.22
2018-09-04T09:51:52.483Z,1017.24
2018-09-04T09:53:14.426Z,1017.21
2018-09-04T09:54:36.134Z,1017.22
2018-09-04T09:55:57.619Z,1017.20
2018-09-04T09:56:58.148Z,1017.23
2018-09-04T09:57:57.511Z,1017.21
2018-09-04T09:58:58.041Z,1017.23
2018-09-04T10:00:18.723Z,1017.24
2018-09-04T10:01:19.189Z,1017.25
2018-09-04T10:02:19.480Z,1017.25
2018-09-04T10:03:40.326Z,1017.24
2018-09-04T10:04:40.601Z,1017.22
2018-09-04T10:05:40.842Z,1017.18
2018-09-04T10:06:40.229Z,1017.22
2018-09-04T10:08:02.682Z,1017.18
2018-09-04T10:09:02.186Z,1017.17
2018-09-04T10:10:02.751Z,1017.09
2018-09-04T10:11:02.361Z,1017.13
2018-09-04T10:12:02.934Z,1017.16
2018-09-04T10:13:02.438Z,1017.11
2018-09-04T10:14:02.859Z,1017.07
2018-09-04T10:15:02.589Z,1017.10
2018-09-04T10:16:03.055Z,1017.07
2018-09-04T10:17:03.038Z,1017.05
2018-09-04T10:18:02.783Z,1017.07
2018-09-04T10:19:02.085Z,1017.03
2018-09-04T10:20:02.559Z,1017.06
2018-09-04T10:21:03.086Z,1017.07
2018-09-04T10:22:44.980Z,1017.07
2018-09-04T10:23:45.465Z,1017.07
2018-09-04T10:24:45.847Z,1017.06
2018-09-04T10:25:45.258Z,1017.03
2018-09-04T10:26:45.797Z,1017.07
2018-09-04T10:27:45.084Z,1017.04
2018-09-04T10:28:45.449Z,1017.04
2018-09-04T10:29:45.824Z,1017.04
2018-09-04T10:31:27.522Z,1017.03
2018-09-04T10:32:27.969Z,1016.99
2018-09-04T10:33:28.176Z,1016.97
2018-09-04T10:34:27.639Z,1016.98
2018-09-04T10:35:28.235Z,1016.95
2018-09-04T10:36:48.892Z,1016.97
2018-09-04T10:37:49.318Z,1017.00
2018-09-04T10:38:49.723Z,1016.99
2018-09-04T10:39:49.084Z,1016.97
2018-09-04T10:40:49.361Z,1016.97
2018-09-04T10:42:10.955Z,1017.00
2018-09-04T10:43:32.392Z,1016.95
2018-09-04T10:44:32.707Z,1016.93
2018-09-04T10:45:33.152Z,1016.96
2018-09-04T10:46:32.501Z,1016.93
2018-09-04T10:47:32.900Z,1016.97
2018-09-04T10:48:33.120Z,1016.96
2018-09-04T10:49:33.315Z,1016.99
2018-09-04T10:50:54.599Z,1016.96
2018-09-04T10:51:54.939Z,1016.96
2018-09-04T10:53:16.831Z,1016.91
2018-09-04T10:54:17.062Z,1016.95
2018-09-04T10:55:17.487Z,1016.90
2018-09-04T10:56:16.762Z,1016.88
2018-09-04T10:57:17.260Z,1016.86
2018-09-04T10:58:17.698Z,1016.88
2018-09-04T10:59:17.018Z,1016.87
2018-09-04T11:00:17.231Z,1016.85
2018-09-04T11:01:17.779Z,1016.86
2018-09-04T11:02:17.139Z,1016.85
2018-09-04T11:03:17.484Z,1016.81
2018-09-04T11:04:16.714Z,1016.83
2018-09-04T11:05:16.976Z,1016.84
2018-09-04T11:06:17.973Z,1016.84
2018-09-04T11:07:39.013Z,1016.84
2018-09-04T11:08:39.491Z,1016.84
2018-09-04T11:09:39.990Z,1016.89
2018-09-04T11:10:39.383Z,1016.90
2018-09-04T11:11:40.250Z,1016.89
2018-09-04T11:12:39.762Z,1016.88
2018-09-04T11:13:39.053Z,1016.88
2018-09-04T11:14:39.324Z,1016.89
2018-09-04T11:15:39.603Z,1016.84
2018-09-04T11:17:00.126Z,1016.83
2018-09-04T11:18:00.633Z,1016.84
2018-09-04T11:19:01.398Z,1016.83
2018-09-04T11:20:00.627Z,1016.81
2018-09-04T11:21:00.906Z,1016.80
2018-09-04T11:22:00.150Z,1016.82
2018-09-04T11:23:00.653Z,1016.80
2018-09-04T11:24:00.858Z,1016.79
2018-09-04T11:25:01.238Z,1016.77
2018-09-04T11:26:00.421Z,1016.77
2018-09-04T11:27:02.844Z,1016.75
2018-09-04T11:28:00.178Z,1016.76
2018-09-04T11:29:01.210Z,1016.80
2018-09-04T11:30:00.724Z,1016.78
2018-09-04T11:31:00.944Z,1016.81
2018-09-04T11:32:00.436Z,1016.79
2018-09-04T11:33:00.686Z,1016.80
2018-09-04T11:34:00.158Z,1016.79
2018-09-04T11:35:21.780Z,1016.77
2018-09-04T11:36:22.084Z,1016.80
2018-09-04T11:37:22.338Z,1016.82
2018-09-04T11:38:22.666Z,1016.81
2018-09-04T11:39:21.976Z,1016.82
2018-09-04T11:40:23.079Z,1016.81
2018-09-04T11:41:22.654Z,1016.82
2018-09-04T11:42:22.021Z,1016.79
2018-09-04T11:43:22.315Z,1016.81
2018-09-04T11:44:22.705Z,1016.84
2018-09-04T11:45:43.383Z,1016.84
2018-09-04T11:46:44.308Z,1016.88
2018-09-04T11:47:43.834Z,1016.87
2018-09-04T11:48:43.284Z,1016.90
2018-09-04T11:49:43.650Z,1016.86
2018-09-04T11:50:44.179Z,1016.90
2018-09-04T11:51:43.519Z,1016.89
2018-09-04T11:53:05.207Z,1016.84
2018-09-04T11:54:05.524Z,1016.81
2018-09-04T11:55:26.821Z,1016.83
2018-09-04T11:56:27.383Z,1016.82
2018-09-04T11:57:27.758Z,1016.85
2018-09-04T11:58:27.247Z,1016.82
2018-09-04T11:59:27.956Z,1016.91
2018-09-04T12:00:27.399Z,1016.90
2018-09-04T12:01:27.716Z,1016.87
2018-09-04T12:02:27.140Z,1016.90
2018-09-04T12:03:27.682Z,1016.93
2018-09-04T12:04:26.902Z,1016.95
2018-09-04T12:05:48.714Z,1016.96
2018-09-04T12:06:49.211Z,1016.94
2018-09-04T12:08:11.299Z,1016.98
2018-09-04T12:09:11.591Z,1016.99
2018-09-04T12:10:12.198Z,1017.02
2018-09-04T12:11:11.714Z,1016.97
2018-09-04T12:12:12.804Z,1016.99
2018-09-04T12:13:12.232Z,1016.93
2018-09-04T12:14:11.655Z,1016.96
2018-09-04T12:15:12.230Z,1016.96
2018-09-04T12:16:11.800Z,1016.94
2018-09-04T12:17:12.820Z,1016.94
2018-09-04T12:18:12.079Z,1016.90
2018-09-04T12:19:53.805Z,1016.88
2018-09-04T12:20:54.254Z,1016.87
2018-09-04T12:21:54.695Z,1016.87
2018-09-04T12:22:54.191Z,1016.84
2018-09-04T12:23:54.514Z,1016.81
2018-09-04T12:24:53.950Z,1016.85
2018-09-04T12:25:54.446Z,1016.79
2018-09-04T12:26:53.998Z,1016.79
2018-09-04T12:27:54.463Z,1016.81
2018-09-04T12:28:53.836Z,1016.79
2018-09-04T12:29:54.354Z,1016.77
2018-09-04T12:30:54.949Z,1016.71
2018-09-04T12:31:55.003Z,1016.74
2018-09-04T12:32:54.557Z,1016.74
2018-09-04T12:34:36.568Z,1016.69
2018-09-04T12:35:37.713Z,1016.74
2018-09-04T12:36:37.499Z,1016.75
2018-09-04T12:37:58.877Z,1016.71
2018-09-04T12:38:59.206Z,1016.75
2018-09-04T12:40:20.464Z,1016.76
2018-09-04T12:41:21.371Z,1016.77
2018-09-04T12:42:20.831Z,1016.77
2018-09-04T12:43:21.139Z,1016.77
2018-09-04T12:44:20.637Z,1016.82
2018-09-04T12:45:21.347Z,1016.85
2018-09-04T12:46:20.718Z,1016.80
2018-09-04T12:47:21.118Z,1016.79
2018-09-04T12:48:20.665Z,1016.77
2018-09-04T12:49:21.187Z,1016.76
2018-09-04T12:50:21.391Z,1016.82
2018-09-04T12:51:20.744Z,1016.80
2018-09-04T12:52:21.084Z,1016.81
2018-09-04T12:53:21.382Z,1016.76
2018-09-04T12:54:41.589Z,1016.76
2018-09-04T12:55:42.117Z,1016.77
2018-09-04T12:56:41.586Z,1016.78